createdAt,value
2023-02-05T00:00:18.259Z,-2.95
2023-02-05T00:01:18.185Z,-2.95
2023-02-05T00:02:18.289Z,-2.94
2023-02-05T00:03:18.191Z,-2.98
2023-02-05T00:04:18.183Z,-3.10
2023-02-05T00:05:18.153Z,-3.09
2023-02-05T00:06:18.149Z,-3.06
2023-02-05T00:07:18.132Z,-3.10
2023-02-05T00:08:18.140Z,-3.02
2023-02-05T00:09:18.110Z,-3.10
2023-02-05T00:10:18.105Z,-3.16
2023-02-05T00:11:18.088Z,-3.33
2023-02-05T00:12:18.092Z,-3.23
2023-02-05T00:13:18.062Z,-3.24
2023-02-05T00:14:18.067Z,-3.29
2023-02-05T00:15:18.048Z,-3.36
2023-02-05T00:16:18.164Z,-3.38
2023-02-05T00:17:18.024Z,-3.45
2023-02-05T00:18:18.012Z,-3.47
2023-02-05T00:19:18.038Z,-3.45
2023-02-05T00:20:18.005Z,-3.54
2023-02-05T00:21:18.010Z,-3.51
2023-02-05T00:22:18.020Z,-3.38
2023-02-05T00:23:17.966Z,-3.23
2023-02-05T00:24:17.955Z,-3.24
2023-02-05T00:25:17.945Z,-3.21
2023-02-05T00:26:17.949Z,-3.20
2023-02-05T00:27:17.938Z,-3.21
2023-02-05T00:28:18.043Z,-3.24
2023-02-05T00:29:17.904Z,-3.18
2023-02-05T00:30:17.893Z,-3.16
2023-02-05T00:31:18.072Z,-3.29
2023-02-05T00:32:17.902Z,-3.15
2023-02-05T00:33:17.873Z,-3.23
2023-02-05T00:34:17.880Z,-3.23
2023-02-05T00:35:17.853Z,-3.18
2023-02-05T00:36:17.834Z,-3.23
2023-02-05T00:37:17.833Z,-3.24
2023-02-05T00:38:17.821Z,-3.20
2023-02-05T00:39:17.819Z,-3.21
2023-02-05T00:40:17.809Z,-3.27
2023-02-05T00:41:17.784Z,-3.24
2023-02-05T00:42:17.792Z,-3.33
2023-02-05T00:43:17.767Z,-3.31
2023-02-05T00:44:17.762Z,-3.23
2023-02-05T00:45:17.748Z,-3.30
2023-02-05T00:46:17.826Z,-3.24
2023-02-05T00:47:17.733Z,-3.30
2023-02-05T00:48:17.740Z,-3.27
2023-02-05T00:49:17.705Z,-3.36
2023-02-05T00:50:17.698Z,-3.33
2023-02-05T00:51:17.705Z,-3.38
2023-02-05T00:52:17.698Z,-3.26
2023-02-05T00:53:17.668Z,-3.23
2023-02-05T00:54:17.658Z,-3.16
2023-02-05T00:55:17.647Z,-3.23
2023-02-05T00:56:17.656Z,-3.20
2023-02-05T00:57:17.625Z,-3.30
2023-02-05T00:58:17.652Z,-3.20
2023-02-05T00:59:17.601Z,-3.27
2023-02-05T01:00:17.593Z,-3.29
2023-02-05T01:01:17.643Z,-3.21
2023-02-05T01:02:17.581Z,-3.26
2023-02-05T01:03:17.583Z,-3.20
2023-02-05T01:04:17.577Z,-3.26
2023-02-05T01:05:17.552Z,-3.26
2023-02-05T01:06:17.539Z,-3.16
2023-02-05T01:07:17.524Z,-3.29
2023-02-05T01:08:17.537Z,-3.24
2023-02-05T01:09:17.516Z,-3.33
2023-02-05T01:10:17.535Z,-3.31
2023-02-05T01:11:17.491Z,-3.41
2023-02-05T01:12:17.493Z,-3.26
2023-02-05T01:13:18.158Z,-3.39
2023-02-05T01:14:17.467Z,-3.38
2023-02-05T01:15:17.446Z,-3.42
2023-02-05T01:16:17.528Z,-3.45
2023-02-05T01:17:17.450Z,-3.45
2023-02-05T01:18:17.443Z,-3.42
2023-02-05T01:19:17.404Z,-3.45
2023-02-05T01:20:17.436Z,-3.41
2023-02-05T01:21:17.419Z,-3.44
2023-02-05T01:22:17.418Z,-3.36
2023-02-05T01:23:17.386Z,-3.34
2023-02-05T01:24:17.367Z,-3.45
2023-02-05T01:25:17.376Z,-3.48
2023-02-05T01:26:17.352Z,-3.45
2023-02-05T01:27:17.343Z,-3.52
2023-02-05T01:28:17.364Z,-3.54
2023-02-05T01:29:17.323Z,-3.54
2023-02-05T01:30:17.338Z,-3.60
2023-02-05T01:31:17.465Z,-3.49
2023-02-05T01:32:17.274Z,-3.55
2023-02-05T01:33:17.307Z,-3.54
2023-02-05T01:34:17.265Z,-3.55
2023-02-05T01:35:17.259Z,-3.54
2023-02-05T01:36:17.264Z,-3.51
2023-02-05T01:37:17.240Z,-3.57
2023-02-05T01:38:17.221Z,-3.57
2023-02-05T01:39:17.224Z,-3.65
2023-02-05T01:40:17.209Z,-3.59
2023-02-05T01:41:17.219Z,-3.57
2023-02-05T01:42:17.182Z,-3.66
2023-02-05T01:43:17.170Z,-3.66
2023-02-05T01:44:17.159Z,-3.66
2023-02-05T01:45:17.153Z,-3.66
2023-02-05T01:46:17.233Z,-3.81
2023-02-05T01:47:17.141Z,-3.74
2023-02-05T01:48:17.118Z,-3.72
2023-02-05T01:49:17.104Z,-3.63
2023-02-05T01:50:17.095Z,-3.82
2023-02-05T01:51:17.097Z,-3.72
2023-02-05T01:52:17.088Z,-3.67
2023-02-05T01:53:17.069Z,-3.63
2023-02-05T01:54:17.071Z,-3.62
2023-02-05T01:55:17.043Z,-3.69
2023-02-05T01:56:17.049Z,-3.59
2023-02-05T01:57:17.031Z,-3.66
2023-02-05T01:58:17.023Z,-3.65
2023-02-05T01:59:17.011Z,-3.62
2023-02-05T02:00:17.008Z,-3.59
2023-02-05T02:01:17.060Z,-3.63
2023-02-05T02:02:16.985Z,-3.67
2023-02-05T02:03:16.962Z,-3.66
2023-02-05T02:04:16.970Z,-3.70
2023-02-05T02:05:17.058Z,-3.74
2023-02-05T02:06:16.968Z,-3.74
2023-02-05T02:07:16.915Z,-3.82
2023-02-05T02:08:16.925Z,-3.82
2023-02-05T02:09:16.958Z,-3.70
2023-02-05T02:10:16.884Z,-3.63
2023-02-05T02:11:16.875Z,-3.78
2023-02-05T02:12:16.892Z,-3.81
2023-02-05T02:13:16.862Z,-3.78
2023-02-05T02:14:16.848Z,-3.70
2023-02-05T02:15:16.856Z,-3.79
2023-02-05T02:16:16.864Z,-3.79
2023-02-05T02:17:16.825Z,-3.77
2023-02-05T02:18:16.816Z,-3.74
2023-02-05T02:19:16.801Z,-3.85
2023-02-05T02:20:16.817Z,-3.82
2023-02-05T02:21:16.780Z,-3.77
2023-02-05T02:22:16.780Z,-3.79
2023-02-05T02:23:16.760Z,-3.74
2023-02-05T02:24:16.766Z,-3.87
2023-02-05T02:25:16.739Z,-3.69
2023-02-05T02:26:16.766Z,-3.70
2023-02-05T02:27:16.707Z,-3.78
2023-02-05T02:28:16.820Z,-3.78
2023-02-05T02:29:16.697Z,-3.79
2023-02-05T02:30:16.700Z,-3.91
2023-02-05T02:31:16.733Z,-3.87
2023-02-05T02:32:16.673Z,-3.92
2023-02-05T02:33:16.663Z,-3.85
2023-02-05T02:34:16.643Z,-3.85
2023-02-05T02:35:16.628Z,-3.81
2023-02-05T02:36:16.635Z,-3.91
2023-02-05T02:37:16.614Z,-3.89
2023-02-05T02:38:16.610Z,-3.74
2023-02-05T02:39:16.596Z,-3.92
2023-02-05T02:40:16.604Z,-3.85
2023-02-05T02:41:16.580Z,-3.85
2023-02-05T02:42:16.584Z,-3.82
2023-02-05T02:43:16.541Z,-3.91
2023-02-05T02:44:16.536Z,-3.87
2023-02-05T02:45:16.546Z,-3.91
2023-02-05T02:46:16.619Z,-3.99
2023-02-05T02:47:16.514Z,-3.99
2023-02-05T02:48:16.517Z,-4.00
2023-02-05T02:49:16.500Z,-4.09
2023-02-05T02:50:16.483Z,-4.02
2023-02-05T02:51:16.491Z,-4.05
2023-02-05T02:52:16.465Z,-4.12
2023-02-05T02:53:16.466Z,-3.92
2023-02-05T02:54:16.460Z,-3.96
2023-02-05T02:55:16.440Z,-3.94
2023-02-05T02:56:16.443Z,-3.99
2023-02-05T02:57:16.413Z,-3.92
2023-02-05T02:58:16.417Z,-3.96
2023-02-05T02:59:16.397Z,-3.88
2023-02-05T03:00:16.403Z,-3.91
2023-02-05T03:01:16.388Z,-3.96
2023-02-05T03:02:16.361Z,-3.94
2023-02-05T03:03:16.359Z,-4.00
2023-02-05T03:04:16.337Z,-4.10
2023-02-05T03:05:16.347Z,-4.12
2023-02-05T03:06:16.327Z,-4.03
2023-02-05T03:07:16.340Z,-4.06
2023-02-05T03:08:16.339Z,-4.10
2023-02-05T03:09:16.285Z,-4.10
2023-02-05T03:10:16.281Z,-4.14
2023-02-05T03:11:16.266Z,-4.14
2023-02-05T03:12:16.287Z,-4.05
2023-02-05T03:13:16.276Z,-3.96
2023-02-05T03:14:16.249Z,-3.92
2023-02-05T03:15:16.261Z,-3.89
2023-02-05T03:16:16.272Z,-4.00
2023-02-05T03:17:16.203Z,-3.96
2023-02-05T03:18:16.201Z,-3.91
2023-02-05T03:19:16.205Z,-3.87
2023-02-05T03:20:16.177Z,-3.88
2023-02-05T03:21:16.170Z,-3.89
2023-02-05T03:22:16.162Z,-3.85
2023-02-05T03:23:16.154Z,-3.87
2023-02-05T03:24:16.137Z,-3.91
2023-02-05T03:25:16.143Z,-3.87
2023-02-05T03:26:16.115Z,-3.87
2023-02-05T03:27:16.119Z,-3.88
2023-02-05T03:28:16.272Z,-3.88
2023-02-05T03:29:16.089Z,-3.78
2023-02-05T03:30:16.073Z,-3.82
2023-02-05T03:31:16.107Z,-3.85
2023-02-05T03:32:16.071Z,-3.88
2023-02-05T03:33:16.040Z,-3.79
2023-02-05T03:34:16.036Z,-3.77
2023-02-05T03:35:16.026Z,-3.81
2023-02-05T03:36:16.008Z,-3.74
2023-02-05T03:37:16.022Z,-3.79
2023-02-05T03:38:15.997Z,-3.69
2023-02-05T03:39:16.003Z,-3.84
2023-02-05T03:40:15.970Z,-3.74
2023-02-05T03:41:15.970Z,-3.81
2023-02-05T03:42:15.949Z,-3.77
2023-02-05T03:43:15.955Z,-3.78
2023-02-05T03:44:15.962Z,-3.81
2023-02-05T03:45:15.941Z,-3.70
2023-02-05T03:46:15.923Z,-3.81
2023-02-05T03:47:15.898Z,-3.85
2023-02-05T03:48:15.914Z,-3.85
2023-02-05T03:49:15.912Z,-3.87
2023-02-05T03:50:15.892Z,-3.82
2023-02-05T03:51:15.859Z,-3.99
2023-02-05T03:52:15.857Z,-3.97
2023-02-05T03:53:15.843Z,-3.89
2023-02-05T03:54:15.828Z,-3.89
2023-02-05T03:55:15.841Z,-3.89
2023-02-05T03:56:15.823Z,-3.85
2023-02-05T03:57:15.799Z,-3.72
2023-02-05T03:58:15.790Z,-3.81
2023-02-05T03:59:15.782Z,-3.77
2023-02-05T04:00:15.813Z,-3.74
2023-02-05T04:01:15.878Z,-3.79
2023-02-05T04:02:15.795Z,-3.78
2023-02-05T04:03:15.737Z,-3.74
2023-02-05T04:04:15.730Z,-3.70
2023-02-05T04:05:15.730Z,-3.69
2023-02-05T04:06:15.722Z,-3.72
2023-02-05T04:07:15.705Z,-3.65
2023-02-05T04:08:15.707Z,-3.57
2023-02-05T04:09:15.675Z,-3.65
2023-02-05T04:10:15.673Z,-3.63
2023-02-05T04:11:15.671Z,-3.79
2023-02-05T04:12:15.642Z,-3.82
2023-02-05T04:13:15.629Z,-3.78
2023-02-05T04:14:15.648Z,-3.74
2023-02-05T04:15:15.617Z,-3.81
2023-02-05T04:16:15.711Z,-3.84
2023-02-05T04:17:15.595Z,-3.88
2023-02-05T04:18:15.580Z,-3.78
2023-02-05T04:19:15.571Z,-3.74
2023-02-05T04:20:15.564Z,-3.79
2023-02-05T04:21:15.580Z,-3.78
2023-02-05T04:22:15.535Z,-3.82
2023-02-05T04:23:15.536Z,-3.78
2023-02-05T04:24:15.696Z,-3.81
2023-02-05T04:25:15.513Z,-3.79
2023-02-05T04:26:15.496Z,-3.74
2023-02-05T04:27:15.507Z,-3.85
2023-02-05T04:28:15.613Z,-3.84
2023-02-05T04:29:15.480Z,-3.79
2023-02-05T04:30:15.474Z,-3.74
2023-02-05T04:31:15.569Z,-3.69
2023-02-05T04:32:15.474Z,-3.82
2023-02-05T04:33:15.461Z,-3.85
2023-02-05T04:34:15.420Z,-3.74
2023-02-05T04:35:15.415Z,-3.70
2023-02-05T04:36:15.426Z,-3.67
2023-02-05T04:37:15.453Z,-3.72
2023-02-05T04:38:15.404Z,-3.65
2023-02-05T04:39:15.381Z,-3.62
2023-02-05T04:40:15.370Z,-3.69
2023-02-05T04:41:15.367Z,-3.59
2023-02-05T04:42:15.356Z,-3.60
2023-02-05T04:43:15.360Z,-3.63
2023-02-05T04:44:15.335Z,-3.60
2023-02-05T04:45:15.324Z,-3.55
2023-02-05T04:46:15.371Z,-3.49
2023-02-05T04:47:15.299Z,-3.49
2023-02-05T04:48:15.331Z,-3.57
2023-02-05T04:49:15.280Z,-3.59
2023-02-05T04:50:15.269Z,-3.67
2023-02-05T04:51:15.278Z,-3.65
2023-02-05T04:52:15.243Z,-3.62
2023-02-05T04:53:15.229Z,-3.57
2023-02-05T04:54:15.243Z,-3.59
2023-02-05T04:55:15.232Z,-3.63
2023-02-05T04:56:15.225Z,-3.60
2023-02-05T04:57:15.195Z,-3.54
2023-02-05T04:58:15.194Z,-3.49
2023-02-05T04:59:15.177Z,-3.49
2023-02-05T05:00:15.178Z,-3.51
2023-02-05T05:01:15.408Z,-3.49
2023-02-05T05:02:15.185Z,-3.55
2023-02-05T05:03:15.132Z,-3.66
2023-02-05T05:04:15.146Z,-3.65
2023-02-05T05:05:15.134Z,-3.57
2023-02-05T05:06:15.110Z,-3.66
2023-02-05T05:07:15.110Z,-3.69
2023-02-05T05:08:15.097Z,-3.65
2023-02-05T05:09:15.078Z,-3.62
2023-02-05T05:10:15.062Z,-3.60
2023-02-05T05:11:15.088Z,-3.60
2023-02-05T05:12:15.061Z,-3.65
2023-02-05T05:13:15.046Z,-3.65
2023-02-05T05:14:15.033Z,-3.63
2023-02-05T05:15:15.023Z,-3.59
2023-02-05T05:16:15.051Z,-3.63
2023-02-05T05:17:15.019Z,-3.65
2023-02-05T05:18:14.989Z,-3.70
2023-02-05T05:19:14.971Z,-3.69
2023-02-05T05:20:14.985Z,-3.74
2023-02-05T05:21:14.963Z,-3.77
2023-02-05T05:22:14.951Z,-3.79
2023-02-05T05:23:14.974Z,-3.79
2023-02-05T05:24:14.922Z,-3.79
2023-02-05T05:25:14.924Z,-3.70
2023-02-05T05:26:14.912Z,-3.72
2023-02-05T05:27:14.902Z,-3.74
2023-02-05T05:28:14.908Z,-3.69
2023-02-05T05:29:14.906Z,-3.78
2023-02-05T05:30:22.424Z,-3.65
2023-02-05T05:31:14.896Z,-3.70
2023-02-05T05:32:22.404Z,-3.55
2023-02-05T05:33:14.840Z,-3.65
2023-02-05T05:34:14.828Z,-3.65
2023-02-05T05:35:14.835Z,-3.60
2023-02-05T05:36:14.829Z,-3.54
2023-02-05T05:37:14.799Z,-3.55
2023-02-05T05:38:14.785Z,-3.60
2023-02-05T05:39:14.800Z,-3.54
2023-02-05T05:40:14.775Z,-3.54
2023-02-05T05:41:14.756Z,-3.52
2023-02-05T05:42:14.754Z,-3.54
2023-02-05T05:43:14.734Z,-3.42
2023-02-05T05:44:14.732Z,-3.38
2023-02-05T05:45:14.729Z,-3.41
2023-02-05T05:46:14.734Z,-3.31
2023-02-05T05:47:14.700Z,-3.27
2023-02-05T05:48:14.686Z,-3.30
2023-02-05T05:49:14.684Z,-3.24
2023-02-05T05:50:14.701Z,-3.21
2023-02-05T05:51:14.665Z,-3.21
2023-02-05T05:52:14.670Z,-3.20
2023-02-05T05:53:14.631Z,-3.23
2023-02-05T05:54:14.762Z,-3.18
2023-02-05T05:55:14.625Z,-3.27
2023-02-05T05:56:14.628Z,-3.26
2023-02-05T05:57:14.601Z,-3.20
2023-02-05T05:58:14.598Z,-3.24
2023-02-05T05:59:14.572Z,-3.16
2023-02-05T06:00:14.570Z,-3.21
2023-02-05T06:01:14.579Z,-3.24
2023-02-05T06:02:14.575Z,-3.18
2023-02-05T06:03:14.534Z,-3.18
2023-02-05T06:04:14.555Z,-3.20
2023-02-05T06:05:14.508Z,-3.15
2023-02-05T06:06:14.522Z,-3.18
2023-02-05T06:07:14.504Z,-3.13
2023-02-05T06:08:14.500Z,-3.21
2023-02-05T06:09:14.469Z,-3.18
2023-02-05T06:10:14.463Z,-3.20
2023-02-05T06:11:14.462Z,-3.09
2023-02-05T06:12:14.449Z,-3.09
2023-02-05T06:13:14.435Z,-3.10
2023-02-05T06:14:14.415Z,-3.13
2023-02-05T06:15:14.410Z,-3.09
2023-02-05T06:16:14.444Z,-3.15
2023-02-05T06:17:14.401Z,-3.10
2023-02-05T06:18:14.385Z,-3.02
2023-02-05T06:19:14.393Z,-3.09
2023-02-05T06:20:14.373Z,-3.13
2023-02-05T06:21:14.370Z,-3.03
2023-02-05T06:22:14.338Z,-3.08
2023-02-05T06:23:14.320Z,-2.94
2023-02-05T06:24:14.333Z,-3.01
2023-02-05T06:25:14.333Z,-2.97
2023-02-05T06:26:14.287Z,-2.94
2023-02-05T06:27:14.293Z,-2.92
2023-02-05T06:28:14.352Z,-2.80
2023-02-05T06:29:14.265Z,-2.88
2023-02-05T06:30:14.260Z,-2.84
2023-02-05T06:31:14.366Z,-2.67
2023-02-05T06:32:14.237Z,-2.72
2023-02-05T06:33:14.230Z,-2.66
2023-02-05T06:34:14.230Z,-2.67
2023-02-05T06:35:14.207Z,-2.70
2023-02-05T06:36:14.213Z,-2.59
2023-02-05T06:37:14.186Z,-2.66
2023-02-05T06:38:14.177Z,-2.66
2023-02-05T06:39:14.167Z,-2.64
2023-02-05T06:40:14.244Z,-2.69
2023-02-05T06:41:14.146Z,-2.67
2023-02-05T06:42:14.146Z,-2.64
2023-02-05T06:43:14.124Z,-2.70
2023-02-05T06:44:14.117Z,-2.66
2023-02-05T06:45:14.098Z,-2.59
2023-02-05T06:46:14.153Z,-2.61
2023-02-05T06:47:14.089Z,-2.59
2023-02-05T06:48:14.083Z,-2.56
2023-02-05T06:49:14.073Z,-2.55
2023-02-05T06:50:14.065Z,-2.67
2023-02-05T06:51:14.046Z,-2.64
2023-02-05T06:52:14.038Z,-2.55
2023-02-05T06:53:14.032Z,-2.64
2023-02-05T06:54:14.024Z,-2.63
2023-02-05T06:55:14.004Z,-2.56
2023-02-05T06:56:14.052Z,-2.43
2023-02-05T06:57:13.994Z,-2.45
2023-02-05T06:58:13.981Z,-2.38
2023-02-05T06:59:13.958Z,-2.43
2023-02-05T07:00:13.952Z,-2.45
2023-02-05T07:01:13.942Z,-2.45
2023-02-05T07:02:13.943Z,-2.35
2023-02-05T07:03:13.936Z,-2.35
2023-02-05T07:04:13.952Z,-2.41
2023-02-05T07:05:13.918Z,-2.41
2023-02-05T07:06:13.895Z,-2.45
2023-02-05T07:07:13.888Z,-2.38
2023-02-05T07:08:13.885Z,-2.35
2023-02-05T07:09:13.858Z,-2.38
2023-02-05T07:10:13.858Z,-2.33
2023-02-05T07:11:13.860Z,-2.34
2023-02-05T07:12:13.853Z,-2.34
2023-02-05T07:13:13.819Z,-2.26
2023-02-05T07:14:13.821Z,-2.27
2023-02-05T07:15:13.813Z,-2.24
2023-02-05T07:16:13.857Z,-2.24
2023-02-05T07:17:13.795Z,-2.21
2023-02-05T07:18:13.799Z,-2.26
2023-02-05T07:19:13.780Z,-2.24
2023-02-05T07:20:13.749Z,-2.24
2023-02-05T07:21:13.745Z,-2.18
2023-02-05T07:22:13.730Z,-2.12
2023-02-05T07:23:13.724Z,-2.11
2023-02-05T07:24:13.743Z,-2.06
2023-02-05T07:25:13.716Z,-2.09
2023-02-05T07:26:13.700Z,-2.08
2023-02-05T07:27:13.683Z,-2.03
2023-02-05T07:28:13.897Z,-2.04
2023-02-05T07:29:13.657Z,-1.98
2023-02-05T07:30:13.696Z,-2.01
2023-02-05T07:31:13.747Z,-1.94
2023-02-05T07:32:13.634Z,-1.86
2023-02-05T07:33:13.629Z,-1.86
2023-02-05T07:34:13.608Z,-1.88
2023-02-05T07:35:13.617Z,-1.80
2023-02-05T07:36:13.609Z,-1.78
2023-02-05T07:37:13.590Z,-1.79
2023-02-05T07:38:13.598Z,-1.75
2023-02-05T07:39:13.568Z,-1.73
2023-02-05T07:40:13.554Z,-1.69
2023-02-05T07:41:13.549Z,-1.64
2023-02-05T07:42:13.530Z,-1.61
2023-02-05T07:43:13.531Z,-1.59
2023-02-05T07:44:13.569Z,-1.64
2023-02-05T07:45:13.495Z,-1.52
2023-02-05T07:46:13.528Z,-1.61
2023-02-05T07:47:13.471Z,-1.52
2023-02-05T07:48:13.461Z,-1.55
2023-02-05T07:49:13.461Z,-1.55
2023-02-05T07:50:13.446Z,-1.46
2023-02-05T07:51:13.433Z,-1.40
2023-02-05T07:52:13.439Z,-1.46
2023-02-05T07:53:13.404Z,-1.37
2023-02-05T07:54:13.406Z,-1.34
2023-02-05T07:55:13.416Z,-1.34
2023-02-05T07:56:13.394Z,-1.36
2023-02-05T07:57:13.376Z,-1.36
2023-02-05T07:58:13.361Z,-1.36
2023-02-05T07:59:13.356Z,-1.34
2023-02-05T08:00:13.358Z,-1.21
2023-02-05T08:01:13.390Z,-1.26
2023-02-05T08:02:13.328Z,-1.19
2023-02-05T08:03:13.304Z,-1.16
2023-02-05T08:04:13.367Z,-1.25
2023-02-05T08:05:13.292Z,-1.10
2023-02-05T08:06:13.282Z,-1.08
2023-02-05T08:07:13.292Z,-1.21
2023-02-05T08:08:13.281Z,-1.15
2023-02-05T08:09:13.251Z,-1.13
2023-02-05T08:10:13.231Z,-1.05
2023-02-05T08:11:13.236Z,-0.95
2023-02-05T08:12:13.208Z,-0.94
2023-02-05T08:13:13.228Z,-1.00
2023-02-05T08:14:13.199Z,-0.82
2023-02-05T08:15:13.188Z,-0.95
2023-02-05T08:16:13.310Z,-0.94
2023-02-05T08:17:13.178Z,-0.92
2023-02-05T08:18:13.182Z,-0.89
2023-02-05T08:19:13.171Z,-0.89
2023-02-05T08:20:13.129Z,-0.79
2023-02-05T08:21:13.121Z,-0.86
2023-02-05T08:22:13.115Z,-0.86
2023-02-05T08:23:13.103Z,-0.90
2023-02-05T08:24:13.100Z,-0.89
2023-02-05T08:25:13.107Z,-0.78
2023-02-05T08:26:13.076Z,-0.71
2023-02-05T08:27:13.069Z,-0.70
2023-02-05T08:28:13.090Z,-0.73
2023-02-05T08:29:13.052Z,-0.68
2023-02-05T08:30:13.038Z,-0.73
2023-02-05T08:31:13.088Z,-0.70
2023-02-05T08:32:19.014Z,-0.86
2023-02-05T08:33:14.125Z,-0.73
2023-02-05T08:34:13.005Z,-0.75
2023-02-05T08:35:13.016Z,-0.71
2023-02-05T08:36:12.975Z,-0.70
2023-02-05T08:37:12.979Z,-0.70
2023-02-05T08:38:12.954Z,-0.49
2023-02-05T08:39:12.947Z,-0.63
2023-02-05T08:40:12.970Z,-0.50
2023-02-05T08:41:12.960Z,-0.64
2023-02-05T08:42:12.915Z,-0.61
2023-02-05T08:43:12.903Z,-0.57
2023-02-05T08:44:12.895Z,-0.57
2023-02-05T08:45:12.917Z,-0.55
2023-02-05T08:46:12.950Z,-0.60
2023-02-05T08:47:12.856Z,-0.53
2023-02-05T08:48:12.876Z,-0.55
2023-02-05T08:49:12.875Z,-0.47
2023-02-05T08:50:12.833Z,-0.49
2023-02-05T08:51:12.821Z,-0.40
2023-02-05T08:52:12.805Z,-0.38
2023-02-05T08:53:12.830Z,-0.42
2023-02-05T08:54:12.789Z,-0.46
2023-02-05T08:55:13.658Z,-0.35
2023-02-05T08:56:12.782Z,-0.35
2023-02-05T08:57:12.757Z,-0.31
2023-02-05T08:58:12.757Z,-0.35
2023-02-05T08:59:12.739Z,-0.35
2023-02-05T09:00:12.735Z,-0.27
2023-02-05T09:01:12.887Z,-0.27
2023-02-05T09:02:12.711Z,-0.21
2023-02-05T09:03:12.704Z,-0.10
2023-02-05T09:04:12.750Z,-0.17
2023-02-05T09:05:12.702Z,-0.28
2023-02-05T09:06:12.689Z,-0.21
2023-02-05T09:07:12.660Z,-0.22
2023-02-05T09:08:12.647Z,-0.13
2023-02-05T09:09:12.632Z,-0.11
2023-02-05T09:10:12.630Z,-0.09
2023-02-05T09:11:12.611Z,-0.10
2023-02-05T09:12:12.617Z,-0.07
2023-02-05T09:13:12.605Z,0.05
2023-02-05T09:14:12.580Z,-0.16
2023-02-05T09:15:12.576Z,-0.13
2023-02-05T09:16:12.564Z,-0.06
2023-02-05T09:17:12.554Z,0.12
2023-02-05T09:18:12.548Z,0.05
2023-02-05T09:19:12.554Z,0.17
2023-02-05T09:20:12.522Z,0.08
2023-02-05T09:21:12.539Z,0.22
2023-02-05T09:22:12.501Z,0.09
2023-02-05T09:23:12.502Z,0.02
2023-02-05T09:24:12.475Z,0.08
2023-02-05T09:25:12.485Z,0.08
2023-02-05T09:26:12.466Z,0.17
2023-02-05T09:27:12.467Z,0.14
2023-02-05T09:28:12.520Z,0.26
2023-02-05T09:29:12.439Z,0.33
2023-02-05T09:30:12.451Z,0.27
2023-02-05T09:31:12.593Z,0.25
2023-02-05T09:32:12.396Z,0.25
2023-02-05T09:33:12.410Z,0.29
2023-02-05T09:34:12.388Z,0.27
2023-02-05T09:35:12.368Z,0.30
2023-02-05T09:36:12.362Z,0.44
2023-02-05T09:37:12.382Z,0.45
2023-02-05T09:38:12.351Z,0.43
2023-02-05T09:39:21.851Z,0.43
2023-02-05T09:40:20.635Z,0.45
2023-02-05T09:41:13.315Z,0.44
2023-02-05T09:42:12.352Z,0.56
2023-02-05T09:43:12.296Z,0.50
2023-02-05T09:44:12.294Z,0.48
2023-02-05T09:45:12.310Z,0.64
2023-02-05T09:46:12.287Z,0.59
2023-02-05T09:47:12.252Z,0.62
2023-02-05T09:48:12.242Z,0.64
2023-02-05T09:49:12.235Z,0.74
2023-02-05T09:50:12.222Z,0.74
2023-02-05T09:51:12.780Z,0.67
2023-02-05T09:52:12.198Z,0.60
2023-02-05T09:53:12.200Z,0.70
2023-02-05T09:54:12.179Z,0.76
2023-02-05T09:55:12.164Z,0.66
2023-02-05T09:56:12.146Z,0.74
2023-02-05T09:57:12.164Z,0.73
2023-02-05T09:58:12.132Z,0.70
2023-02-05T09:59:12.116Z,0.69
2023-02-05T10:00:12.114Z,0.80
2023-02-05T10:01:12.129Z,0.72
2023-02-05T10:02:12.080Z,0.73
2023-02-05T10:03:12.095Z,0.74
2023-02-05T10:04:12.133Z,0.84
2023-02-05T10:05:12.066Z,0.84
2023-02-05T10:06:12.062Z,0.81
2023-02-05T10:07:12.040Z,0.73
2023-02-05T10:08:12.026Z,0.70
2023-02-05T10:09:12.059Z,0.84
2023-02-05T10:10:12.043Z,0.82
2023-02-05T10:11:11.998Z,0.85
2023-02-05T10:12:11.983Z,0.74
2023-02-05T10:13:11.969Z,0.82
2023-02-05T10:14:11.959Z,0.94
2023-02-05T10:15:11.957Z,0.90
2023-02-05T10:16:11.959Z,1.13
2023-02-05T10:17:11.932Z,1.24
2023-02-05T10:18:11.929Z,1.13
2023-02-05T10:19:11.918Z,1.06
2023-02-05T10:20:11.910Z,1.00
2023-02-05T10:21:11.915Z,1.17
2023-02-05T10:22:11.999Z,1.16
2023-02-05T10:23:11.878Z,1.13
2023-02-05T10:24:11.898Z,1.10
2023-02-05T10:25:11.880Z,1.05
2023-02-05T10:26:11.840Z,1.16
2023-02-05T10:27:11.823Z,1.05
2023-02-05T10:28:11.871Z,1.06
2023-02-05T10:29:11.830Z,1.10
2023-02-05T10:30:11.792Z,1.16
2023-02-05T10:31:11.831Z,1.16
2023-02-05T10:32:11.777Z,1.13
2023-02-05T10:33:11.773Z,1.30
2023-02-05T10:34:11.775Z,1.30
2023-02-05T10:35:11.760Z,1.35
2023-02-05T10:36:11.732Z,1.28
2023-02-05T10:37:11.735Z,1.30
2023-02-05T10:38:11.729Z,1.39
2023-02-05T10:39:11.713Z,1.30
2023-02-05T10:40:11.704Z,1.31
2023-02-05T10:41:11.710Z,1.34
2023-02-05T10:42:11.683Z,1.36
2023-02-05T10:43:11.663Z,1.36
2023-02-05T10:44:11.649Z,1.41
2023-02-05T10:45:11.654Z,1.55
2023-02-05T10:46:11.644Z,1.55
2023-02-05T10:47:11.622Z,1.52
2023-02-05T10:48:11.619Z,1.42
2023-02-05T10:49:11.610Z,1.63
2023-02-05T10:50:11.604Z,1.75
2023-02-05T10:51:11.589Z,1.71
2023-02-05T10:52:11.574Z,1.73
2023-02-05T10:53:11.571Z,1.67
2023-02-05T10:54:11.562Z,1.69
2023-02-05T10:55:11.537Z,1.74
2023-02-05T10:56:11.538Z,1.81
2023-02-05T10:57:11.554Z,1.80
2023-02-05T10:58:11.513Z,1.84
2023-02-05T10:59:11.499Z,1.99
2023-02-05T11:00:11.483Z,1.99
2023-02-05T11:01:11.505Z,2.01
2023-02-05T11:02:11.477Z,2.01
2023-02-05T11:03:11.460Z,2.15
2023-02-05T11:04:11.444Z,2.10
2023-02-05T11:05:11.443Z,2.17
2023-02-05T11:06:11.452Z,2.21
2023-02-05T11:07:11.429Z,2.24
2023-02-05T11:08:11.408Z,2.19
2023-02-05T11:09:11.395Z,2.15
2023-02-05T11:10:11.411Z,2.10
2023-02-05T11:11:11.388Z,2.00
2023-02-05T11:12:11.368Z,2.00
2023-02-05T11:13:11.473Z,1.97
2023-02-05T11:14:11.339Z,2.21
2023-02-05T11:15:11.327Z,2.14
2023-02-05T11:16:11.373Z,2.00
2023-02-05T11:17:11.323Z,2.10
2023-02-05T11:18:11.296Z,2.14
2023-02-05T11:19:11.287Z,2.24
2023-02-05T11:20:11.275Z,2.30
2023-02-05T11:21:11.268Z,2.14
2023-02-05T11:22:11.254Z,2.07
2023-02-05T11:23:11.258Z,2.19
2023-02-05T11:24:11.233Z,2.25
2023-02-05T11:25:11.232Z,2.32
2023-02-05T11:26:11.215Z,2.22
2023-02-05T11:27:11.207Z,2.29
2023-02-05T11:28:11.267Z,2.21
2023-02-05T11:29:11.208Z,2.22
2023-02-05T11:30:11.175Z,2.19
2023-02-05T11:31:11.248Z,2.30
2023-02-05T11:32:13.689Z,2.25
2023-02-05T11:33:11.152Z,2.22
2023-02-05T11:34:11.138Z,2.11
2023-02-05T11:35:11.119Z,2.04
2023-02-05T11:36:11.123Z,2.24
2023-02-05T11:37:11.104Z,2.24
2023-02-05T11:38:11.120Z,2.29
2023-02-05T11:39:11.084Z,2.35
2023-02-05T11:40:11.089Z,2.33
2023-02-05T11:41:11.056Z,2.39
2023-02-05T11:42:11.051Z,2.53
2023-02-05T11:43:11.036Z,2.58
2023-02-05T11:44:11.031Z,2.39
2023-02-05T11:45:11.037Z,2.45
2023-02-05T11:46:11.030Z,2.55
2023-02-05T11:47:11.000Z,2.50
2023-02-05T11:48:10.991Z,2.71
2023-02-05T11:49:10.982Z,2.81
2023-02-05T11:50:10.965Z,2.82
2023-02-05T11:51:10.962Z,2.76
2023-02-05T11:52:10.968Z,2.81
2023-02-05T11:53:10.937Z,2.89
2023-02-05T11:54:10.921Z,2.61
2023-02-05T11:55:10.926Z,2.65
2023-02-05T11:56:10.915Z,2.63
2023-02-05T11:57:10.890Z,2.63
2023-02-05T11:58:10.887Z,2.61
2023-02-05T11:59:10.879Z,2.65
2023-02-05T12:00:10.860Z,2.66
2023-02-05T12:01:10.892Z,2.68
2023-02-05T12:02:10.872Z,2.66
2023-02-05T12:03:10.894Z,2.66
2023-02-05T12:04:10.826Z,2.75
2023-02-05T12:05:10.816Z,2.63
2023-02-05T12:06:10.807Z,2.68
2023-02-05T12:07:10.803Z,2.78
2023-02-05T12:08:10.781Z,2.84
2023-02-05T12:09:10.770Z,2.82
2023-02-05T12:10:10.768Z,2.84
2023-02-05T12:11:10.758Z,2.89
2023-02-05T12:12:10.750Z,2.84
2023-02-05T12:13:10.748Z,2.84
2023-02-05T12:14:10.727Z,2.79
2023-02-05T12:15:10.711Z,2.69
2023-02-05T12:16:10.814Z,2.58
2023-02-05T12:17:10.717Z,2.65
2023-02-05T12:18:10.693Z,2.68
2023-02-05T12:19:10.676Z,2.72
2023-02-05T12:20:10.665Z,2.71
2023-02-05T12:21:10.662Z,2.71
2023-02-05T12:22:10.638Z,2.75
2023-02-05T12:23:10.637Z,2.79
2023-02-05T12:24:10.630Z,2.78
2023-02-05T12:25:10.608Z,2.78
2023-02-05T12:26:10.591Z,2.86
2023-02-05T12:27:10.601Z,2.91
2023-02-05T12:28:10.648Z,2.84
2023-02-05T12:29:10.581Z,2.87
2023-02-05T12:30:10.603Z,2.84
2023-02-05T12:31:10.540Z,2.79
2023-02-05T12:32:10.549Z,2.81
2023-02-05T12:33:10.544Z,2.82
2023-02-05T12:34:10.536Z,2.81
2023-02-05T12:35:10.502Z,2.87
2023-02-05T12:36:10.496Z,2.79
2023-02-05T12:37:10.490Z,2.87
2023-02-05T12:38:10.475Z,2.94
2023-02-05T12:39:10.472Z,2.93
2023-02-05T12:40:10.452Z,3.00
2023-02-05T12:41:10.437Z,3.09
2023-02-05T12:42:10.437Z,3.11
2023-02-05T12:43:10.415Z,3.11
2023-02-05T12:44:10.410Z,3.08
2023-02-05T12:45:10.398Z,3.07
2023-02-05T12:46:10.422Z,3.14
2023-02-05T12:47:10.375Z,3.09
2023-02-05T12:48:10.378Z,3.09
2023-02-05T12:49:10.367Z,3.17
2023-02-05T12:50:10.353Z,3.22
2023-02-05T12:51:10.337Z,3.14
2023-02-05T12:52:10.333Z,3.15
2023-02-05T12:53:10.317Z,3.09
2023-02-05T12:54:10.309Z,2.96
2023-02-05T12:55:10.315Z,2.93
2023-02-05T12:56:10.278Z,3.08
2023-02-05T12:57:10.268Z,2.94
2023-02-05T12:58:10.268Z,2.99
2023-02-05T12:59:10.250Z,2.90